Archival Weather

Norman Y Mineta San Jose Intl

San Jose, California (KSJC)

Report from: Friday, February 2, 2024 9:53 AM PST
Current time: Friday, June 21, 2024 2:15 AM PDT

Current weather – Weather history – Daily summaries
Weather forecast

Temperature11.7°C (53.1°F)
Dew point8.3°C (46.9°F)
Winds 4 kts (2.1 m/s, 4.6 mph) South (170°)
Visibility10 mi. (16.1 km)
Clouds Few clouds 800 ft. (244 m)
Few clouds 1,300 ft. (396 m)
Scattered clouds 3,500 ft. (1,067 m)
Altimeter29.94 in.Hg (1014 mB)
Precipitiation0.02 in. (1 mm)
Precip. events Rain ended 5:32 PM
Precip last 3 hours0.14 in. (4 mm)
Relative humidity80 %
Density altitude-248 ft. (-76 m)
Sea-level pressure101.4 kPa (1014 mB, 29.93 in.Hg)
Max temp last 6 hours11.7°C (53.1°F)
Min temp last 6 hours9.4°C (48.9°F)
Remarks Automated weather observing station with precipitation discriminator
Cumulonimbus clouds observed distant north and west
Pressure rising more slowly
Flight conditions Visual Meteorological Conditions
Raw dataKSJC 021753Z 17004KT 10SM FEW008 FEW013 SCT035 12/08 A2994 RMK AO2 RAE32 SLP136 CB DSNT N AND W P0002 60014 T01170083 10117 20094 51020
An error has occurred. This application may no longer respond until reloaded. Reload 🗙